Time;durP1;ratioP1;P1;durP2;ratioP2;P2;SDS_P1;SDS_P2;PMS_P1;PMS_P2;Temp;Humidity;BMP_temperature;BMP_pressure;BME280_temperature;BME280_humidity;BME280_pressure;Samples;Min_cycle;Max_cycle;Signal;HPM_P1;HPM_P2
2022/03/18 00:00:43;;;;;;;7.88;2.78;;;6.40;61.50;;;;;;6187081;23;20017;-83
2022/03/18 00:03:09;;;;;;;6.15;2.80;;;6.40;61.50;;;;;;6184864;23;20024;-83
2022/03/18 00:05:35;;;;;;;6.35;2.90;;;6.30;61.40;;;;;;6186190;23;20341;-83
2022/03/18 00:08:01;;;;;;;5.88;2.92;;;6.30;61.40;;;;;;6186909;23;20067;-83
2022/03/18 00:10:28;;;;;;;5.93;2.75;;;6.30;61.40;;;;;;6184692;23;20021;-83
2022/03/18 00:12:54;;;;;;;4.88;2.55;;;6.30;61.40;;;;;;6184922;23;20013;-83
2022/03/18 00:15:24;;;;;;;6.13;2.95;;;6.30;61.40;;;;;;6184951;23;20059;-83
2022/03/18 00:17:53;;;;;;;5.38;2.65;;;6.20;61.40;;;;;;6186656;23;20092;-83
2022/03/18 00:20:19;;;;;;;7.22;2.83;;;6.70;61.80;;;;;;6184924;23;20056;-82
2022/03/18 00:22:46;;;;;;;6.97;3.20;;;6.20;61.50;;;;;;6186620;23;20092;-83
2022/03/18 00:25:13;;;;;;;8.07;3.25;;;6.20;61.60;;;;;;6184151;23;20099;-83
2022/03/18 00:27:39;;;;;;;5.35;2.75;;;6.10;61.50;;;;;;6186428;23;20020;-83
2022/03/18 00:30:06;;;;;;;8.38;3.25;;;6.10;61.50;;;;;;6186694;23;20020;-83
2022/03/18 00:32:32;;;;;;;6.53;2.80;;;6.10;61.60;;;;;;6186632;23;20021;-83
2022/03/18 00:34:59;;;;;;;6.10;3.22;;;6.10;61.50;;;;;;6184385;23;20035;-82
2022/03/18 00:37:25;;;;;;;7.80;3.50;;;6.10;61.50;;;;;;6159799;23;20159;-83
2022/03/18 00:39:50;;;;;;;8.32;3.20;;;6.10;61.60;;;;;;6185016;23;20044;-83
2022/03/18 00:42:16;;;;;;;7.72;3.60;;;6.00;61.60;;;;;;6159968;23;20013;-83
2022/03/18 00:44:42;;;;;;;6.07;2.80;;;6.00;61.60;;;;;;6184789;23;20120;-83
2022/03/18 00:52:37;;;;;;;8.30;3.10;;;5.90;61.60;;;;;;6184739;23;20021;-83
2022/03/18 00:55:03;;;;;;;7.18;3.38;;;5.90;61.70;;;;;;6186776;23;20017;-83
2022/03/18 00:57:29;;;;;;;7.00;3.25;;;5.90;61.70;;;;;;6186694;23;20084;-83
2022/03/18 00:59:55;;;;;;;5.95;2.92;;;5.90;62.10;;;;;;6186405;23;20386;-83
2022/03/18 01:02:20;;;;;;;6.43;3.50;;;5.90;61.70;;;;;;6184861;23;20025;-83
2022/03/18 01:04:46;;;;;;;8.18;3.47;;;5.90;61.80;;;;;;6184761;23;20071;-83
2022/03/18 01:07:12;;;;;;;7.40;2.95;;;5.90;61.80;;;;;;6184302;23;20051;-82
2022/03/18 01:09:37;;;;;;;5.53;3.13;;;5.80;61.80;;;;;;6184200;23;20017;-84
2022/03/18 01:12:04;;;;;;;7.63;3.33;;;5.80;61.80;;;;;;6186287;23;20100;-83
2022/03/18 01:14:30;;;;;;;5.93;3.50;;;5.80;61.80;;;;;;6184682;23;20020;-83
2022/03/18 01:16:55;;;;;;;9.63;3.50;;;5.70;61.80;;;;;;6186522;23;20009;-83
2022/03/18 01:19:21;;;;;;;6.53;3.15;;;5.80;61.90;;;;;;6184265;23;20508;-83
2022/03/18 01:21:47;;;;;;;5.90;3.47;;;5.80;61.80;;;;;;6184095;23;20052;-83
2022/03/18 01:24:12;;;;;;;8.32;3.58;;;5.80;61.80;;;;;;6184873;23;20040;-83
2022/03/18 01:26:38;;;;;;;7.72;3.45;;;5.70;61.60;;;;;;6184862;23;20052;-83
2022/03/18 01:29:04;;;;;;;6.72;3.55;;;5.70;61.70;;;;;;6184366;23;20017;-84
2022/03/18 01:31:30;;;;;;;6.85;3.50;;;5.70;61.80;;;;;;6184554;23;20013;-82
2022/03/18 01:33:56;;;;;;;7.82;3.25;;;5.70;61.80;;;;;;6188049;23;20440;-83
2022/03/18 01:36:22;;;;;;;7.75;3.60;;;5.70;61.90;;;;;;6186410;23;20017;-83
2022/03/18 01:38:48;;;;;;;5.43;3.10;;;5.60;61.90;;;;;;6188066;23;20009;-83
2022/03/18 01:41:14;;;;;;;7.70;3.80;;;5.60;61.90;;;;;;6185656;23;20310;-82
2022/03/18 01:43:42;;;;;;;5.75;3.10;;;5.60;62.00;;;;;;6188734;23;20073;-83
2022/03/18 01:46:09;;;;;;;6.75;3.33;;;5.60;62.00;;;;;;6186332;23;20013;-83
2022/03/18 01:48:35;;;;;;;9.48;4.18;;;5.60;62.00;;;;;;6186094;23;20027;-83
2022/03/18 01:51:03;;;;;;;5.97;3.47;;;5.60;62.00;;;;;;6187840;23;20013;-83
2022/03/18 01:53:28;;;;;;;7.38;3.72;;;5.60;62.00;;;;;;6188046;23;20017;-83
2022/03/18 01:55:55;;;;;;;5.25;3.20;;;5.50;61.90;;;;;;6186337;23;20468;-83
2022/03/18 01:58:23;;;;;;;5.18;3.38;;;5.60;62.00;;;;;;6188255;23;20017;-83
2022/03/18 02:00:48;;;;;;;8.48;3.40;;;5.50;62.00;;;;;;6185450;23;20049;-83
2022/03/18 02:03:14;;;;;;;6.82;3.53;;;5.50;62.00;;;;;;6185756;23;20017;-83
2022/03/18 02:05:40;;;;;;;4.80;2.92;;;5.50;62.00;;;;;;6188186;23;20422;-83
2022/03/18 02:08:10;;;;;;;7.07;3.72;;;5.50;62.00;;;;;;6188262;23;20096;-83
2022/03/18 02:10:37;;;;;;;6.30;3.13;;;5.50;62.00;;;;;;6188482;23;20024;-82
2022/03/18 02:13:03;;;;;;;5.95;3.20;;;5.50;62.00;;;;;;6189310;23;20020;-83
2022/03/18 02:15:29;;;;;;;5.22;3.10;;;5.50;62.10;;;;;;6193282;23;20017;-83
2022/03/18 02:17:55;;;;;;;5.95;3.95;;;5.40;62.00;;;;;;6144102;23;20013;-83
2022/03/18 02:20:21;;;;;;;7.65;4.07;;;5.40;62.10;;;;;;6195164;23;20330;-83
2022/03/18 02:22:46;;;;;;;6.65;3.47;;;5.40;62.20;;;;;;6195406;23;20031;-83
2022/03/18 02:25:12;;;;;;;6.40;3.40;;;5.40;62.20;;;;;;6193837;23;20025;-83
2022/03/18 02:27:56;;;;;;;6.00;3.75;;;5.50;62.30;;;;;;6193994;23;20021;-83
2022/03/18 02:30:22;;;;;;;6.75;3.40;;;5.40;62.30;;;;;;6193990;23;20024;-83
2022/03/18 02:32:48;;;;;;;5.88;3.35;;;5.40;62.20;;;;;;6195344;23;20067;-83
2022/03/18 02:35:14;;;;;;;5.53;3.20;;;5.40;62.30;;;;;;6192141;23;20441;-83
2022/03/18 02:37:39;;;;;;;7.28;3.78;;;5.40;62.20;;;;;;6192755;23;20438;-83
2022/03/18 02:40:06;;;;;;;7.70;4.13;;;5.40;62.30;;;;;;6194576;23;20028;-83
2022/03/18 02:42:31;;;;;;;5.90;3.13;;;5.40;62.70;;;;;;6194416;23;20345;-83
2022/03/18 02:44:57;;;;;;;5.43;3.50;;;5.30;62.20;;;;;;6192023;23;20017;-82
2022/03/18 02:47:24;;;;;;;5.93;3.30;;;5.60;62.40;;;;;;6195208;23;20012;-84
2022/03/18 02:49:50;;;;;;;7.43;3.53;;;5.30;62.30;;;;;;6197058;23;20093;-83
2022/03/18 02:52:15;;;;;;;5.80;3.40;;;5.30;62.30;;;;;;6189288;23;20009;-83
2022/03/18 02:54:42;;;;;;;6.38;3.47;;;5.30;62.30;;;;;;6164496;23;20021;-83
2022/03/18 02:57:08;;;;;;;6.85;3.40;;;5.30;62.20;;;;;;6189648;23;20021;-84
2022/03/18 02:59:33;;;;;;;7.07;3.92;;;5.30;62.20;;;;;;6185879;23;20097;-83
2022/03/18 03:01:59;;;;;;;7.35;3.67;;;5.30;62.20;;;;;;6185439;23;20017;-83
2022/03/18 03:04:25;;;;;;;7.15;3.40;;;5.30;62.10;;;;;;6187341;23;20025;-83
2022/03/18 03:09:35;;;;;;;8.27;3.75;;;5.20;62.20;;;;;;6187726;23;20063;-83
2022/03/18 03:12:01;;;;;;;7.22;3.72;;;5.20;62.20;;;;;;6199667;23;20341;-83
2022/03/18 03:14:26;;;;;;;6.65;3.80;;;5.20;62.20;;;;;;6207768;23;20083;-83
2022/03/18 03:16:52;;;;;;;5.57;3.80;;;5.20;62.20;;;;;;6201636;23;20021;-83
2022/03/18 03:19:18;;;;;;;5.07;3.53;;;5.20;62.30;;;;;;6185638;23;20052;-83
2022/03/18 03:21:44;;;;;;;4.88;3.60;;;5.20;62.20;;;;;;6185068;23;20060;-83
2022/03/18 03:24:10;;;;;;;6.20;3.40;;;5.20;62.20;;;;;;6187606;23;20017;-83
2022/03/18 03:26:36;;;;;;;6.68;3.63;;;5.20;62.30;;;;;;6185173;23;20021;-83
2022/03/18 03:29:01;;;;;;;6.28;3.58;;;5.10;62.10;;;;;;6187264;23;20020;-83
2022/03/18 03:31:27;;;;;;;7.35;3.72;;;5.20;62.20;;;;;;6187490;23;20307;-83
2022/03/18 03:33:53;;;;;;;7.35;3.45;;;5.10;62.00;;;;;;6185193;23;20319;-83
2022/03/18 03:36:19;;;;;;;7.97;3.90;;;5.10;62.00;;;;;;6187204;23;20055;-83
2022/03/18 03:38:45;;;;;;;10.32;4.03;;;5.10;62.00;;;;;;6160348;23;20040;-83
2022/03/18 03:41:11;;;;;;;7.30;3.65;;;5.10;62.20;;;;;;6187119;23;20028;-83
2022/03/18 03:43:38;;;;;;;7.13;3.58;;;5.10;62.20;;;;;;6185112;23;20009;-83
2022/03/18 03:46:04;;;;;;;6.00;3.65;;;5.10;62.70;;;;;;6185184;23;20410;-83
2022/03/18 03:48:30;;;;;;;6.22;4.00;;;5.10;62.30;;;;;;6185299;23;20087;-83
2022/03/18 03:50:56;;;;;;;7.00;3.80;;;5.00;62.20;;;;;;6186471;23;20477;-83
2022/03/18 03:53:22;;;;;;;5.03;3.42;;;5.00;62.20;;;;;;6187170;23;20389;-83
2022/03/18 03:55:48;;;;;;;5.18;3.42;;;5.00;62.30;;;;;;6185021;23;20037;-83
2022/03/18 03:58:13;;;;;;;5.65;3.38;;;5.00;62.40;;;;;;6186302;23;20017;-83
2022/03/18 04:00:40;;;;;;;6.78;3.50;;;5.00;62.40;;;;;;6186659;23;20028;-83
2022/03/18 04:03:06;;;;;;;6.45;3.35;;;5.00;62.50;;;;;;6185096;23;20036;-83
2022/03/18 04:05:33;;;;;;;6.43;3.90;;;5.00;62.40;;;;;;6184903;23;20104;-83
2022/03/18 04:07:59;;;;;;;6.93;4.07;;;5.00;62.50;;;;;;6184606;23;20009;-83
2022/03/18 04:10:25;;;;;;;7.70;3.72;;;5.00;62.50;;;;;;6184800;23;20017;-83
2022/03/18 04:12:51;;;;;;;5.60;3.72;;;5.40;62.70;;;;;;6185285;23;20063;-83
2022/03/18 04:15:17;;;;;;;6.15;3.50;;;4.90;62.50;;;;;;6186956;23;20342;-83
2022/03/18 04:17:47;;;;;;;6.65;3.35;;;4.90;62.40;;;;;;6184783;23;20016;-84
2022/03/18 04:20:24;;;;;;;7.43;4.05;;;4.90;62.40;;;;;;6185880;23;20012;-83
2022/03/18 04:22:51;;;;;;;7.53;4.03;;;4.90;62.50;;;;;;6184906;23;20060;-83
2022/03/18 04:25:17;;;;;;;6.38;3.55;;;4.90;62.50;;;;;;6187008;23;20009;-83
2022/03/18 04:27:42;;;;;;;6.35;3.78;;;4.90;62.50;;;;;;6186800;23;20372;-83
2022/03/18 04:30:11;;;;;;;5.15;3.33;;;4.90;62.50;;;;;;6184481;23;20040;-83
2022/03/18 04:32:37;;;;;;;7.30;3.65;;;4.90;62.50;;;;;;6184966;23;20051;-84
2022/03/18 04:35:04;;;;;;;7.38;3.72;;;4.90;62.50;;;;;;6159962;23;20013;-83
2022/03/18 04:37:30;;;;;;;6.57;3.30;;;4.90;62.40;;;;;;6186830;23;20020;-83
2022/03/18 04:39:56;;;;;;;6.88;3.67;;;4.90;62.40;;;;;;6184586;23;20052;-83
2022/03/18 04:42:22;;;;;;;5.53;3.20;;;4.90;62.40;;;;;;6186662;23;20059;-84
2022/03/18 04:44:47;;;;;;;7.15;3.65;;;4.90;62.40;;;;;;6186214;23;20023;-83
2022/03/18 04:47:13;;;;;;;5.80;3.60;;;4.80;62.30;;;;;;6186719;23;20017;-83
2022/03/18 04:49:39;;;;;;;5.63;3.40;;;4.80;62.30;;;;;;6184669;23;20017;-83
2022/03/18 04:52:05;;;;;;;8.18;3.97;;;4.80;62.30;;;;;;6184262;23;20140;-83
2022/03/18 04:54:31;;;;;;;6.53;3.55;;;4.80;62.20;;;;;;6184355;23;20108;-83
2022/03/18 04:59:41;;;;;;;5.77;3.10;;;4.70;62.10;;;;;;6187111;23;20096;-83
2022/03/18 05:02:10;;;;;;;6.40;3.60;;;4.80;62.30;;;;;;6185285;23;20017;-82
2022/03/18 05:04:37;;;;;;;5.80;3.50;;;4.70;62.20;;;;;;6184252;23;20017;-83
2022/03/18 05:07:03;;;;;;;7.00;3.95;;;4.70;62.30;;;;;;6186596;23;20342;-83
2022/03/18 05:09:29;;;;;;;5.82;3.92;;;4.70;62.30;;;;;;6188005;23;20059;-84
2022/03/18 05:11:54;;;;;;;8.88;3.58;;;4.90;62.50;;;;;;6186565;23;20096;-83
2022/03/18 05:14:20;;;;;;;5.30;4.00;;;4.70;62.50;;;;;;6188434;23;20429;-83
2022/03/18 05:16:46;;;;;;;7.13;4.03;;;4.70;62.50;;;;;;6187309;23;20080;-83
2022/03/18 05:19:12;;;;;;;6.25;3.63;;;4.70;62.50;;;;;;6186346;23;20445;-84
2022/03/18 05:21:39;;;;;;;6.75;3.78;;;4.70;62.60;;;;;;6186240;23;20418;-82
2022/03/18 05:24:06;;;;;;;9.18;4.35;;;4.70;62.60;;;;;;6186110;23;20009;-83
2022/03/18 05:26:33;;;;;;;9.05;4.28;;;4.60;62.50;;;;;;6188444;23;20096;-83
2022/03/18 05:28:59;;;;;;;6.72;4.88;;;4.60;62.50;;;;;;6137288;23;20017;-83
2022/03/18 05:31:28;;;;;;;8.20;4.68;;;4.60;62.40;;;;;;6186265;23;20051;-83
2022/03/18 05:33:56;;;;;;;6.25;3.58;;;4.60;62.50;;;;;;6160972;23;20032;-83
2022/03/18 05:36:22;;;;;;;6.40;3.88;;;4.60;62.50;;;;;;6186377;23;20017;-83
2022/03/18 05:38:48;;;;;;;8.63;4.13;;;4.60;62.60;;;;;;6161891;23;20398;-83
2022/03/18 05:41:14;;;;;;;6.45;4.15;;;4.60;62.60;;;;;;6186087;23;20023;-84
2022/03/18 05:43:40;;;;;;;6.60;3.85;;;4.60;62.60;;;;;;6188110;23;20053;-83
2022/03/18 05:46:07;;;;;;;5.78;3.88;;;4.60;62.60;;;;;;6188190;23;20047;-84
2022/03/18 05:48:32;;;;;;;6.88;4.65;;;4.60;62.60;;;;;;6187618;23;20460;-83
2022/03/18 05:51:00;;;;;;;9.73;4.45;;;4.60;62.50;;;;;;6186357;23;20024;-84
2022/03/18 05:53:26;;;;;;;7.38;4.57;;;4.60;62.60;;;;;;6186166;23;20028;-84
2022/03/18 05:58:37;;;;;;;7.40;4.28;;;4.50;62.50;;;;;;6185999;23;20021;-84
2022/03/18 06:01:03;;;;;;;7.93;4.20;;;4.60;62.60;;;;;;6188350;23;20028;-83
2022/03/18 06:03:28;;;;;;;7.88;4.10;;;4.60;62.60;;;;;;6161202;23;20017;-82
2022/03/18 06:05:54;;;;;;;6.25;4.30;;;4.50;62.60;;;;;;6187553;23;20362;-83
2022/03/18 06:13:48;;;;;;;9.43;4.38;;;4.50;63.00;;;;;;6188098;23;20045;-84
2022/03/18 06:16:14;;;;;;;6.35;4.35;;;4.70;62.80;;;;;;6185876;23;20453;-83
2022/03/18 06:18:39;;;;;;;7.57;4.60;;;4.50;62.70;;;;;;6186076;23;20048;-83
2022/03/18 06:21:06;;;;;;;9.45;4.55;;;4.50;62.90;;;;;;6185096;23;20025;-82
2022/03/18 06:23:33;;;;;;;6.93;4.57;;;4.50;62.90;;;;;;6159978;23;20414;-83
2022/03/18 06:25:59;;;;;;;7.07;4.43;;;4.50;62.90;;;;;;6187671;23;20406;-84
2022/03/18 06:28:24;;;;;;;8.63;4.85;;;4.40;62.90;;;;;;6187889;23;20078;-83
2022/03/18 06:30:50;;;;;;;8.75;4.85;;;4.50;63.10;;;;;;6185584;23;20053;-83
2022/03/18 06:33:16;;;;;;;7.03;4.50;;;4.50;63.20;;;;;;6185975;23;20013;-83
2022/03/18 06:35:42;;;;;;;6.43;4.03;;;4.50;63.20;;;;;;6185195;23;20062;-84
2022/03/18 06:38:08;;;;;;;8.23;4.70;;;4.50;63.30;;;;;;6185846;23;20334;-84
2022/03/18 06:40:40;;;;;;;6.60;4.97;;;4.50;63.50;;;;;;6161732;23;20028;-91
2022/03/18 06:43:06;;;;;;;8.57;4.72;;;4.50;63.60;;;;;;6188815;23;20017;-92
2022/03/18 06:45:32;;;;;;;7.53;5.03;;;4.50;63.70;;;;;;6188718;23;20068;-91
2022/03/18 06:48:03;;;;;;;7.72;5.30;;;5.00;64.10;;;;;;6188196;23;20434;-90
2022/03/18 06:50:29;;;;;;;6.43;4.70;;;4.50;63.90;;;;;;6188354;23;20314;-92
2022/03/18 06:52:55;;;;;;;9.27;5.15;;;4.90;64.40;;;;;;6138623;23;20088;-92
2022/03/18 06:55:21;;;;;;;8.07;4.53;;;4.60;64.20;;;;;;6138513;23;20021;-92
2022/03/18 06:57:47;;;;;;;7.80;5.15;;;4.90;64.40;;;;;;6189157;23;20013;-92
2022/03/18 07:00:20;;;;;;;7.40;5.05;;;4.70;64.20;;;;;;6163064;23;20021;-91
2022/03/18 07:02:46;;;;;;;11.90;5.25;;;4.60;64.20;;;;;;6191210;23;20028;-92
2022/03/18 07:05:32;;;;;;;;;;;;;;;;;;;;;
2022/03/18 07:11:27;;;;;;;6.83;4.97;;;4.60;64.60;;;;;;6190813;23;20021;-94
2022/03/18 07:14:23;;;;;;;;;;;;;;;;;;;;;
2022/03/18 07:19:43;;;;;;;10.52;5.90;;;4.80;65.50;;;;;;6187586;23;20440;-94
2022/03/18 07:22:12;;;;;;;8.10;5.68;;;5.20;66.00;;;;;;6168718;23;20021;-95
2022/03/18 07:24:38;;;;;;;10.48;5.97;;;4.60;66.10;;;;;;6194122;23;20044;-93
2022/03/18 07:27:04;;;;;;;10.30;6.20;;;5.40;66.80;;;;;;6192191;23;20325;-94
2022/03/18 07:29:33;;;;;;;12.45;6.80;;;5.10;66.60;;;;;;6189752;23;20017;-94
2022/03/18 07:31:58;;;;;;;8.32;6.25;;;5.20;66.90;;;;;;6208438;23;20017;-94
2022/03/18 07:34:24;;;;;;;9.98;7.45;;;5.50;67.90;;;;;;6212858;23;20012;-94
2022/03/18 07:40:31;;;;;;;14.30;9.38;;;5.70;68.60;;;;;;6214281;23;20073;-93
2022/03/18 07:42:59;;;;;;;14.25;9.73;;;6.10;68.40;;;;;;6212768;23;20009;-94
2022/03/18 07:45:28;;;;;;;15.30;9.63;;;6.50;68.70;;;;;;6168203;23;20096;-94
2022/03/18 07:47:55;;;;;;;14.93;10.52;;;6.30;68.70;;;;;;6203146;23;20032;-94
2022/03/18 07:50:24;;;;;;;16.00;10.60;;;6.40;68.80;;;;;;6179533;23;20060;-94
2022/03/18 07:52:55;;;;;;;21.13;12.43;;;6.60;68.90;;;;;;6182559;23;20001;-91
2022/03/18 07:55:24;;;;;;;18.98;12.77;;;6.80;69.00;;;;;;6208316;23;20045;-91
2022/03/18 07:57:51;;;;;;;19.02;13.65;;;6.90;68.90;;;;;;6202072;23;20017;-92
2022/03/18 08:00:18;;;;;;;20.52;12.68;;;7.10;69.30;;;;;;6190012;23;20016;-92
2022/03/18 08:02:46;;;;;;;17.75;13.20;;;7.60;69.10;;;;;;6138909;23;20024;-92
2022/03/18 08:05:13;;;;;;;18.70;12.93;;;7.90;69.10;;;;;;6139320;23;20344;-92
2022/03/18 08:07:58;;;;;;;22.88;13.27;;;8.10;68.80;;;;;;6188469;23;20021;-92
2022/03/18 08:10:25;;;;;;;16.13;12.15;;;8.00;68.70;;;;;;6188537;23;20020;-92
2022/03/18 08:12:51;;;;;;;17.38;11.65;;;8.60;68.50;;;;;;6138664;23;20124;-92
2022/03/18 08:15:19;;;;;;;16.50;11.75;;;8.80;68.20;;;;;;6190476;23;20073;-91
2022/03/18 08:17:45;;;;;;;17.95;12.20;;;8.80;67.70;;;;;;6187949;23;20015;-91
2022/03/18 08:20:13;;;;;;;16.15;11.60;;;9.20;67.30;;;;;;6187800;23;20048;-93
2022/03/18 08:22:58;;;;;;;14.20;10.63;;;10.00;67.20;;;;;;6189749;23;20027;-92
2022/03/18 08:25:24;;;;;;;15.07;10.13;;;9.90;65.80;;;;;;6193714;23;20069;-90
2022/03/18 08:27:50;;;;;;;14.88;10.40;;;10.30;65.60;;;;;;6195832;23;20013;-92
2022/03/18 08:30:16;;;;;;;13.80;10.27;;;10.60;64.90;;;;;;6191345;23;20048;-92
2022/03/18 08:32:42;;;;;;;18.88;10.95;;;11.30;64.50;;;;;;6174651;23;20009;-92
2022/03/18 08:35:09;;;;;;;17.88;10.15;;;11.30;63.70;;;;;;6213341;23;20045;-92
2022/03/18 08:40:18;;;;;;;16.20;9.80;;;12.10;62.50;;;;;;6188407;23;20036;-92
2022/03/18 08:42:44;;;;;;;15.48;9.85;;;12.70;62.30;;;;;;6188902;23;20025;-92
2022/03/18 08:45:11;;;;;;;14.48;9.20;;;12.60;61.30;;;;;;6187782;23;20013;-92
2022/03/18 08:47:37;;;;;;;14.48;9.23;;;12.90;61.10;;;;;;6189486;23;20017;-94
2022/03/18 08:50:04;;;;;;;13.02;8.77;;;13.20;60.70;;;;;;6187776;23;20044;-92
2022/03/18 08:52:30;;;;;;;13.95;8.68;;;13.50;59.90;;;;;;6187372;23;20088;-95
2022/03/18 08:54:56;;;;;;;15.35;8.60;;;13.70;59.30;;;;;;6191100;23;20330;-95
2022/03/18 08:57:22;;;;;;;14.75;8.77;;;13.80;59.10;;;;;;6187692;23;20009;-94
2022/03/18 08:59:48;;;;;;;18.25;8.40;;;14.10;58.90;;;;;;6188442;23;20063;-94
2022/03/18 09:02:13;;;;;;;18.80;8.15;;;14.30;58.60;;;;;;6163136;23;20013;-94
2022/03/18 09:04:39;;;;;;;16.67;8.82;;;14.40;58.00;;;;;;6190365;23;20096;-94
2022/03/18 09:10:46;;;;;;;16.90;8.85;;;14.60;57.40;;;;;;6189929;23;20152;-95
2022/03/18 09:13:11;;;;;;;15.30;7.85;;;14.60;57.80;;;;;;6163574;23;20025;-94
2022/03/18 09:15:37;;;;;;;13.07;7.38;;;14.70;57.50;;;;;;6187949;23;20016;-94
2022/03/18 09:18:03;;;;;;;16.63;8.23;;;14.80;57.20;;;;;;6163484;23;20104;-94
2022/03/18 09:20:29;;;;;;;15.30;7.90;;;14.80;57.10;;;;;;6187763;23;20021;-95
2022/03/18 09:22:55;;;;;;;17.08;8.25;;;14.90;57.10;;;;;;6187275;23;20382;-88
2022/03/18 09:25:20;;;;;;;15.88;7.63;;;14.90;57.30;;;;;;6189541;23;20072;-95
2022/03/18 09:27:46;;;;;;;15.20;7.55;;;15.10;57.20;;;;;;6162959;23;20017;-92
2022/03/18 09:30:15;;;;;;;12.15;6.75;;;15.10;57.00;;;;;;6189057;23;20021;-92
2022/03/18 09:32:42;;;;;;;12.88;6.80;;;15.10;56.90;;;;;;6187635;23;20048;-94
2022/03/18 09:35:14;;;;;;;11.82;7.47;;;15.20;56.80;;;;;;6189381;23;20028;-92
2022/03/18 09:37:43;;;;;;;14.65;7.78;;;15.60;56.90;;;;;;6187532;23;20318;-93
2022/03/18 09:40:11;;;;;;;11.82;6.78;;;15.40;56.40;;;;;;6187487;23;20028;-93
2022/03/18 09:43:02;;;;;;;18.85;8.00;;;15.40;56.20;;;;;;6188993;23;20032;-93
2022/03/18 09:45:31;;;;;;;16.17;7.78;;;15.50;55.70;;;;;;6162679;23;20100;-91
2022/03/18 09:48:03;;;;;;;13.50;7.75;;;15.50;55.70;;;;;;6162388;23;20021;-90
2022/03/18 09:50:29;;;;;;;13.45;7.50;;;15.50;55.70;;;;;;6187039;23;20017;-88
2022/03/18 09:56:39;;;;;;;12.68;6.65;;;15.60;55.60;;;;;;6190435;23;20016;-91
2022/03/18 09:59:06;;;;;;;14.90;7.25;;;15.50;55.40;;;;;;6189326;23;20024;-92
2022/03/18 10:01:31;;;;;;;14.57;6.93;;;15.40;55.50;;;;;;6189472;23;20020;-91
2022/03/18 10:04:03;;;;;;;12.73;7.70;;;15.70;56.00;;;;;;6189170;23;20052;-89
2022/03/18 10:06:28;;;;;;;15.07;7.35;;;15.40;55.50;;;;;;6190825;23;20009;-92
2022/03/18 10:08:55;;;;;;;15.73;6.95;;;15.50;55.90;;;;;;6190148;23;20024;-86
2022/03/18 10:11:30;;;;;;;12.38;7.07;;;15.60;55.90;;;;;;6187942;23;20094;-93
2022/03/18 10:14:07;;;;;;;14.57;7.85;;;15.60;55.80;;;;;;6187309;23;20017;-83
2022/03/18 10:16:44;;;;;;;10.43;6.95;;;15.60;55.50;;;;;;6185027;23;20044;-84
2022/03/18 10:19:21;;;;;;;16.08;7.30;;;15.80;55.50;;;;;;6185936;23;20021;-84
2022/03/18 10:21:54;;;;;;;14.55;7.50;;;15.70;55.30;;;;;;6161035;23;20013;-85
2022/03/18 10:24:28;;;;;;;16.48;7.55;;;15.80;55.10;;;;;;6188044;23;20109;-84
2022/03/18 10:27:14;;;;;;;14.95;7.47;;;15.80;55.20;;;;;;6186193;23;20024;-85
2022/03/18 10:29:44;;;;;;;13.23;7.28;;;15.90;55.00;;;;;;6187898;23;20368;-83
2022/03/18 10:32:11;;;;;;;12.38;7.13;;;15.80;54.90;;;;;;6185845;23;20013;-86
2022/03/18 10:37:25;;;;;;;17.27;7.80;;;15.80;54.80;;;;;;6186372;23;20021;-87
2022/03/18 10:39:59;;;;;;;13.23;6.45;;;15.90;55.00;;;;;;6136972;23;20021;-87
2022/03/18 10:42:25;;;;;;;11.85;6.70;;;16.10;54.80;;;;;;6186222;23;20088;-89
2022/03/18 10:44:57;;;;;;;13.73;6.47;;;15.90;54.70;;;;;;6140941;23;20096;-88
2022/03/18 10:47:28;;;;;;;13.18;6.70;;;15.90;54.60;;;;;;6186463;23;20020;-87
2022/03/18 10:50:21;;;;;;;15.23;6.93;;;16.00;55.20;;;;;;6160535;23;20059;-86
2022/03/18 10:52:47;;;;;;;11.27;6.28;;;16.00;55.10;;;;;;6185005;23;20025;-86
2022/03/18 10:55:28;;;;;;;10.35;6.25;;;16.00;55.30;;;;;;6185510;23;20028;-86
2022/03/18 10:57:54;;;;;;;10.85;6.28;;;16.10;54.90;;;;;;6135433;23;20053;-86
2022/03/18 11:00:22;;;;;;;13.02;5.85;;;16.10;54.30;;;;;;6187478;23;20091;-86
2022/03/18 11:02:49;;;;;;;12.55;6.82;;;16.10;54.50;;;;;;6187544;23;20089;-86
2022/03/18 11:05:20;;;;;;;15.02;5.90;;;16.10;53.80;;;;;;6185303;23;20024;-87
2022/03/18 11:07:46;;;;;;;12.63;5.93;;;16.30;53.70;;;;;;6186009;23;20021;-87
2022/03/18 11:13:02;;;;;;;11.18;6.50;;;16.10;53.60;;;;;;6187040;23;20017;-87
2022/03/18 11:15:29;;;;;;;11.30;5.88;;;16.20;53.70;;;;;;6184818;23;20374;-86
2022/03/18 11:17:56;;;;;;;9.63;5.70;;;16.20;53.50;;;;;;6184336;23;20027;-85
2022/03/18 11:20:26;;;;;;;11.80;6.03;;;16.20;53.60;;;;;;6185212;23;20019;-86
2022/03/18 11:22:51;;;;;;;12.35;6.47;;;16.30;53.70;;;;;;6186800;23;20025;-86
2022/03/18 11:25:18;;;;;;;12.73;5.53;;;16.70;53.90;;;;;;6189806;23;20039;-87
2022/03/18 11:27:46;;;;;;;11.07;5.00;;;16.40;53.10;;;;;;6195176;23;20013;-87
2022/03/18 11:30:25;;;;;;;9.80;4.35;;;16.50;52.60;;;;;;6200053;23;20068;-86
2022/03/18 11:33:06;;;;;;;13.38;4.70;;;16.50;51.90;;;;;;6187649;23;20013;-86
2022/03/18 11:35:52;;;;;;;11.10;5.10;;;16.50;52.00;;;;;;6184527;23;20450;-85
2022/03/18 11:38:22;;;;;;;10.68;4.70;;;16.50;52.30;;;;;;6042980;23;20055;-86
2022/03/18 11:41:01;;;;;;;11.70;5.20;;;16.50;52.20;;;;;;6066609;23;20463;-85
2022/03/18 11:43:30;;;;;;;7.65;5.10;;;16.50;52.10;;;;;;6043127;23;20050;-86
2022/03/18 11:46:16;;;;;;;11.15;5.13;;;16.50;51.70;;;;;;6066506;23;20195;-85
2022/03/18 11:48:56;;;;;;;11.23;5.30;;;16.60;52.10;;;;;;6065280;23;20048;-85
2022/03/18 11:51:28;;;;;;;11.52;5.10;;;16.60;51.80;;;;;;6066707;23;20078;-85
2022/03/18 11:53:55;;;;;;;9.70;4.50;;;16.70;51.70;;;;;;6042827;23;20025;-85
2022/03/18 11:56:40;;;;;;;11.05;4.95;;;16.80;51.20;;;;;;6046279;23;20446;-84
2022/03/18 11:59:28;;;;;;;;;;;16.80;51.10;;;;;;6056587;23;20023;-84
2022/03/18 12:01:57;;;;;;;14.65;5.97;;;16.80;51.90;;;;;;5954036;24;19923;-84
2022/03/18 12:04:41;;;;;;;11.77;5.25;;;16.90;51.80;;;;;;5942712;24;20048;-85
2022/03/18 12:10:38;;;;;;;12.82;3.83;;;16.90;50.80;;;;;;5930758;24;20103;-84
2022/03/18 12:13:05;;;;;;;9.65;3.58;;;17.00;49.60;;;;;;5931122;24;20541;-84
2022/03/18 12:15:36;;;;;;;11.40;4.18;;;17.10;49.60;;;;;;5977360;23;20461;-84
2022/03/18 12:18:03;;;;;;;9.00;4.13;;;17.00;49.30;;;;;;6014328;23;20023;-85
2022/03/18 12:20:34;;;;;;;12.30;4.88;;;17.00;49.10;;;;;;6038113;23;20030;-84
2022/03/18 12:23:07;;;;;;;9.90;4.93;;;17.00;48.20;;;;;;6038049;23;20139;-84
2022/03/18 12:25:36;;;;;;;10.20;4.20;;;17.00;49.00;;;;;;6014195;23;20031;-84
2022/03/18 12:28:02;;;;;;;12.57;4.97;;;16.90;48.70;;;;;;6038222;23;20023;-83
2022/03/18 12:30:29;;;;;;;9.82;4.43;;;16.80;48.70;;;;;;6038146;23;20046;-83
2022/03/18 12:32:59;;;;;;;9.80;4.40;;;16.80;49.00;;;;;;6038304;23;20370;-83
2022/03/18 12:35:27;;;;;;;9.85;3.30;;;16.80;49.30;;;;;;6038073;23;20467;-84
2022/03/18 12:38:09;;;;;;;10.43;3.80;;;16.80;48.50;;;;;;6051012;23;20037;-83
2022/03/18 12:40:40;;;;;;;8.57;3.28;;;16.80;48.00;;;;;;6184189;23;20315;-84
2022/03/18 12:43:07;;;;;;;10.10;3.05;;;16.80;47.50;;;;;;6184270;23;20373;-84
2022/03/18 12:45:44;;;;;;;8.55;4.22;;;16.90;47.50;;;;;;6186179;23;20017;-84
2022/03/18 12:48:15;;;;;;;6.72;2.90;;;16.80;47.40;;;;;;6183953;23;20017;-84
2022/03/18 12:50:44;;;;;;;9.18;3.67;;;16.80;47.70;;;;;;6184831;23;20021;-86
2022/03/18 12:53:20;;;;;;;7.60;2.90;;;16.80;47.70;;;;;;6184401;23;20060;-85
2022/03/18 12:55:57;;;;;;;9.27;3.42;;;16.80;47.00;;;;;;6184371;23;20028;-83
2022/03/18 12:58:26;;;;;;;8.10;3.20;;;16.70;47.80;;;;;;6183570;23;20017;-84
2022/03/18 13:00:55;;;;;;;10.30;3.60;;;16.70;48.10;;;;;;6186397;23;20017;-85
2022/03/18 13:03:27;;;;;;;8.57;3.65;;;16.70;48.50;;;;;;6184956;23;20056;-84
2022/03/18 13:06:03;;;;;;;13.85;4.13;;;16.70;47.70;;;;;;6159455;23;20064;-85
2022/03/18 13:08:36;;;;;;;7.95;3.55;;;16.70;48.40;;;;;;6159307;23;20017;-85
2022/03/18 13:11:04;;;;;;;10.90;3.97;;;16.80;48.50;;;;;;6184544;23;20032;-84
2022/03/18 13:13:30;;;;;;;11.15;4.22;;;16.70;47.70;;;;;;6186232;23;20060;-84
2022/03/18 13:16:04;;;;;;;10.10;3.80;;;16.80;47.50;;;;;;6184095;23;20016;-84
2022/03/18 13:18:31;;;;;;;9.95;4.13;;;16.70;47.60;;;;;;6184764;23;20083;-85
2022/03/18 13:21:00;;;;;;;13.93;4.40;;;16.60;48.30;;;;;;6182033;23;20012;-85
2022/03/18 13:23:27;;;;;;;10.60;3.40;;;16.60;47.80;;;;;;6185512;23;20060;-85
2022/03/18 13:25:53;;;;;;;8.48;2.97;;;16.60;48.30;;;;;;6181252;23;20059;-85
2022/03/18 13:28:19;;;;;;;8.00;3.40;;;16.60;48.40;;;;;;6183958;23;20018;-87
2022/03/18 13:33:48;;;;;;;8.82;3.63;;;16.60;47.20;;;;;;6184692;23;20039;-87
2022/03/18 13:36:29;;;;;;;9.40;3.40;;;16.60;47.70;;;;;;6188096;23;20466;-87
2022/03/18 13:38:58;;;;;;;8.07;3.60;;;16.50;47.70;;;;;;6188300;23;20070;-87
2022/03/18 13:41:27;;;;;;;15.88;4.38;;;16.60;48.20;;;;;;6186147;23;20417;-87
2022/03/18 13:43:56;;;;;;;10.75;4.00;;;16.50;47.90;;;;;;6186678;23;20480;-87
2022/03/18 13:46:27;;;;;;;10.30;4.13;;;16.50;48.60;;;;;;6186452;23;20040;-87